<?xml version="1.0" encoding="UTF-8" standalone="no" ?>
<gpx xmlns="http://www.topografix.com/GPX/1/1" xmlns:xsi="http://www.w3.org/2001/XMLSchema-instance" xsi:schemaLocation="http://www.topografix.com/GPX/1/1 http://www.topografix.com/GPX/1/1/gpx.xsd" version="1.1" creator="VisuGPX - https://www.visugpx.com">
  <metadata>
    <name>Course à pied le matin</name>
  </metadata>
  <trk>
    <name><![CDATA[Course à pied le matin_1]]></name>
    <trkseg>
      <trkpt lat="45.68654" lon="-1.18478">
        <ele>8.7</ele>
        <time>2023-10-28T07:53:57Z</time>
      </trkpt>
      <trkpt lat="45.68651" lon="-1.18453">
        <ele>9</ele>
        <time>2023-10-28T07:54:10Z</time>
      </trkpt>
      <trkpt lat="45.6866" lon="-1.18427">
        <ele>9.2</ele>
        <time>2023-10-28T07:54:17Z</time>
      </trkpt>
      <trkpt lat="45.68669" lon="-1.18398">
        <ele>8.7</ele>
        <time>2023-10-28T07:54:22Z</time>
      </trkpt>
      <trkpt lat="45.68669" lon="-1.18364">
        <ele>7.3</ele>
        <time>2023-10-28T07:54:26Z</time>
      </trkpt>
      <trkpt lat="45.68676" lon="-1.18336">
        <ele>6.5</ele>
        <time>2023-10-28T07:54:30Z</time>
      </trkpt>
      <trkpt lat="45.68677" lon="-1.18314">
        <ele>6</ele>
        <time>2023-10-28T07:54:33Z</time>
      </trkpt>
      <trkpt lat="45.68672" lon="-1.18306">
        <ele>6</ele>
        <time>2023-10-28T07:54:35Z</time>
      </trkpt>
      <trkpt lat="45.68665" lon="-1.18294">
        <ele>6</ele>
        <time>2023-10-28T07:54:38Z</time>
      </trkpt>
      <trkpt lat="45.68665" lon="-1.18267">
        <ele>6</ele>
        <time>2023-10-28T07:54:42Z</time>
      </trkpt>
      <trkpt lat="45.6867" lon="-1.18256">
        <ele>6</ele>
        <time>2023-10-28T07:54:43Z</time>
      </trkpt>
      <trkpt lat="45.68674" lon="-1.18252">
        <ele>6</ele>
        <time>2023-10-28T07:54:45Z</time>
      </trkpt>
      <trkpt lat="45.68688" lon="-1.18252">
        <ele>6</ele>
        <time>2023-10-28T07:54:48Z</time>
      </trkpt>
      <trkpt lat="45.68698" lon="-1.18262">
        <ele>5.9</ele>
        <time>2023-10-28T07:54:50Z</time>
      </trkpt>
      <trkpt lat="45.68705" lon="-1.18273">
        <ele>5.9</ele>
        <time>2023-10-28T07:54:53Z</time>
      </trkpt>
      <trkpt lat="45.68712" lon="-1.18274">
        <ele>5.9</ele>
        <time>2023-10-28T07:54:55Z</time>
      </trkpt>
      <trkpt lat="45.68723" lon="-1.18286">
        <ele>5.6</ele>
        <time>2023-10-28T07:54:59Z</time>
      </trkpt>
      <trkpt lat="45.68723" lon="-1.18317">
        <ele>5.8</ele>
        <time>2023-10-28T07:55:04Z</time>
      </trkpt>
      <trkpt lat="45.68725" lon="-1.18321">
        <ele>5.8</ele>
        <time>2023-10-28T07:55:05Z</time>
      </trkpt>
      <trkpt lat="45.68744" lon="-1.18331">
        <ele>5.7</ele>
        <time>2023-10-28T07:55:10Z</time>
      </trkpt>
      <trkpt lat="45.68755" lon="-1.18338">
        <ele>5.7</ele>
        <time>2023-10-28T07:55:13Z</time>
      </trkpt>
      <trkpt lat="45.68753" lon="-1.18365">
        <ele>6.1</ele>
        <time>2023-10-28T07:55:18Z</time>
      </trkpt>
      <trkpt lat="45.68749" lon="-1.18379">
        <ele>6.5</ele>
        <time>2023-10-28T07:55:21Z</time>
      </trkpt>
      <trkpt lat="45.68767" lon="-1.18395">
        <ele>6.1</ele>
        <time>2023-10-28T07:55:27Z</time>
      </trkpt>
      <trkpt lat="45.68775" lon="-1.18397">
        <ele>5.7</ele>
        <time>2023-10-28T07:55:29Z</time>
      </trkpt>
      <trkpt lat="45.68787" lon="-1.18386">
        <ele>5.7</ele>
        <time>2023-10-28T07:55:32Z</time>
      </trkpt>
      <trkpt lat="45.68792" lon="-1.18373">
        <ele>5.7</ele>
        <time>2023-10-28T07:55:34Z</time>
      </trkpt>
      <trkpt lat="45.68801" lon="-1.18348">
        <ele>6.2</ele>
        <time>2023-10-28T07:55:38Z</time>
      </trkpt>
      <trkpt lat="45.68809" lon="-1.18327">
        <ele>5.5</ele>
        <time>2023-10-28T07:55:42Z</time>
      </trkpt>
      <trkpt lat="45.68814" lon="-1.18318">
        <ele>5.5</ele>
        <time>2023-10-28T07:55:44Z</time>
      </trkpt>
      <trkpt lat="45.6882" lon="-1.18311">
        <ele>5.5</ele>
        <time>2023-10-28T07:55:46Z</time>
      </trkpt>
      <trkpt lat="45.68833" lon="-1.1831">
        <ele>5.6</ele>
        <time>2023-10-28T07:55:49Z</time>
      </trkpt>
      <trkpt lat="45.68846" lon="-1.18312">
        <ele>5.6</ele>
        <time>2023-10-28T07:55:52Z</time>
      </trkpt>
      <trkpt lat="45.68857" lon="-1.18302">
        <ele>5.9</ele>
        <time>2023-10-28T07:55:55Z</time>
      </trkpt>
      <trkpt lat="45.68859" lon="-1.18288">
        <ele>6.1</ele>
        <time>2023-10-28T07:55:57Z</time>
      </trkpt>
      <trkpt lat="45.68863" lon="-1.18271">
        <ele>6.5</ele>
        <time>2023-10-28T07:56:01Z</time>
      </trkpt>
      <trkpt lat="45.68871" lon="-1.18269">
        <ele>6.8</ele>
        <time>2023-10-28T07:56:03Z</time>
      </trkpt>
      <trkpt lat="45.68893" lon="-1.18275">
        <ele>7</ele>
        <time>2023-10-28T07:56:08Z</time>
      </trkpt>
      <trkpt lat="45.6891" lon="-1.18283">
        <ele>7</ele>
        <time>2023-10-28T07:56:12Z</time>
      </trkpt>
      <trkpt lat="45.68912" lon="-1.183">
        <ele>6.8</ele>
        <time>2023-10-28T07:56:15Z</time>
      </trkpt>
      <trkpt lat="45.68911" lon="-1.18326">
        <ele>6.7</ele>
        <time>2023-10-28T07:56:19Z</time>
      </trkpt>
      <trkpt lat="45.68915" lon="-1.18333">
        <ele>6.9</ele>
        <time>2023-10-28T07:56:20Z</time>
      </trkpt>
      <trkpt lat="45.68921" lon="-1.18342">
        <ele>7</ele>
        <time>2023-10-28T07:56:24Z</time>
      </trkpt>
      <trkpt lat="45.68921" lon="-1.18369">
        <ele>6.9</ele>
        <time>2023-10-28T07:56:30Z</time>
      </trkpt>
      <trkpt lat="45.68919" lon="-1.18374">
        <ele>6.9</ele>
        <time>2023-10-28T07:56:32Z</time>
      </trkpt>
      <trkpt lat="45.68914" lon="-1.18379">
        <ele>6.8</ele>
        <time>2023-10-28T07:56:36Z</time>
      </trkpt>
      <trkpt lat="45.68917" lon="-1.1839">
        <ele>6.8</ele>
        <time>2023-10-28T07:56:42Z</time>
      </trkpt>
      <trkpt lat="45.6891" lon="-1.18412">
        <ele>6.5</ele>
        <time>2023-10-28T07:56:49Z</time>
      </trkpt>
      <trkpt lat="45.68908" lon="-1.18441">
        <ele>6.3</ele>
        <time>2023-10-28T07:56:55Z</time>
      </trkpt>
      <trkpt lat="45.68908" lon="-1.18455">
        <ele>6.4</ele>
        <time>2023-10-28T07:56:56Z</time>
      </trkpt>
      <trkpt lat="45.68908" lon="-1.1847">
        <ele>6.3</ele>
        <time>2023-10-28T07:56:59Z</time>
      </trkpt>
      <trkpt lat="45.68904" lon="-1.18499">
        <ele>6.1</ele>
        <time>2023-10-28T07:57:03Z</time>
      </trkpt>
      <trkpt lat="45.68897" lon="-1.18525">
        <ele>5.8</ele>
        <time>2023-10-28T07:57:07Z</time>
      </trkpt>
      <trkpt lat="45.68889" lon="-1.1855">
        <ele>5.3</ele>
        <time>2023-10-28T07:57:11Z</time>
      </trkpt>
      <trkpt lat="45.68883" lon="-1.18567">
        <ele>5.2</ele>
        <time>2023-10-28T07:57:14Z</time>
      </trkpt>
      <trkpt lat="45.68872" lon="-1.18588">
        <ele>5.3</ele>
        <time>2023-10-28T07:57:18Z</time>
      </trkpt>
      <trkpt lat="45.68858" lon="-1.18609">
        <ele>5.8</ele>
        <time>2023-10-28T07:57:23Z</time>
      </trkpt>
      <trkpt lat="45.68852" lon="-1.18614">
        <ele>6</ele>
        <time>2023-10-28T07:57:24Z</time>
      </trkpt>
      <trkpt lat="45.68849" lon="-1.18616">
        <ele>6</ele>
        <time>2023-10-28T07:57:26Z</time>
      </trkpt>
      <trkpt lat="45.68846" lon="-1.18618">
        <ele>6.1</ele>
        <time>2023-10-28T07:57:28Z</time>
      </trkpt>
      <trkpt lat="45.68838" lon="-1.18644">
        <ele>6.3</ele>
        <time>2023-10-28T07:57:35Z</time>
      </trkpt>
      <trkpt lat="45.68839" lon="-1.1867">
        <ele>6</ele>
        <time>2023-10-28T07:57:41Z</time>
      </trkpt>
      <trkpt lat="45.68844" lon="-1.18676">
        <ele>5.8</ele>
        <time>2023-10-28T07:57:42Z</time>
      </trkpt>
      <trkpt lat="45.68863" lon="-1.18685">
        <ele>5</ele>
        <time>2023-10-28T07:57:49Z</time>
      </trkpt>
      <trkpt lat="45.6888" lon="-1.18671">
        <ele>4.6</ele>
        <time>2023-10-28T07:57:54Z</time>
      </trkpt>
      <trkpt lat="45.68896" lon="-1.18654">
        <ele>4.3</ele>
        <time>2023-10-28T07:57:59Z</time>
      </trkpt>
      <trkpt lat="45.68907" lon="-1.1863">
        <ele>4.1</ele>
        <time>2023-10-28T07:58:04Z</time>
      </trkpt>
      <trkpt lat="45.68919" lon="-1.18609">
        <ele>4</ele>
        <time>2023-10-28T07:58:09Z</time>
      </trkpt>
      <trkpt lat="45.68924" lon="-1.18609">
        <ele>3.9</ele>
        <time>2023-10-28T07:58:10Z</time>
      </trkpt>
      <trkpt lat="45.68943" lon="-1.18607">
        <ele>3.8</ele>
        <time>2023-10-28T07:58:16Z</time>
      </trkpt>
      <trkpt lat="45.68963" lon="-1.18609">
        <ele>3.8</ele>
        <time>2023-10-28T07:58:20Z</time>
      </trkpt>
      <trkpt lat="45.68968" lon="-1.18609">
        <ele>3.8</ele>
        <time>2023-10-28T07:58:21Z</time>
      </trkpt>
      <trkpt lat="45.68977" lon="-1.18605">
        <ele>3.9</ele>
        <time>2023-10-28T07:58:23Z</time>
      </trkpt>
      <trkpt lat="45.68996" lon="-1.18596">
        <ele>4.4</ele>
        <time>2023-10-28T07:58:27Z</time>
      </trkpt>
      <trkpt lat="45.69013" lon="-1.18588">
        <ele>5.2</ele>
        <time>2023-10-28T07:58:31Z</time>
      </trkpt>
      <trkpt lat="45.69021" lon="-1.18588">
        <ele>5.4</ele>
        <time>2023-10-28T07:58:33Z</time>
      </trkpt>
      <trkpt lat="45.69037" lon="-1.18603">
        <ele>5.6</ele>
        <time>2023-10-28T07:58:37Z</time>
      </trkpt>
      <trkpt lat="45.69051" lon="-1.1862">
        <ele>6</ele>
        <time>2023-10-28T07:58:41Z</time>
      </trkpt>
      <trkpt lat="45.69055" lon="-1.18624">
        <ele>6</ele>
        <time>2023-10-28T07:58:42Z</time>
      </trkpt>
      <trkpt lat="45.69063" lon="-1.18627">
        <ele>6.2</ele>
        <time>2023-10-28T07:58:44Z</time>
      </trkpt>
      <trkpt lat="45.69081" lon="-1.18624">
        <ele>6.7</ele>
        <time>2023-10-28T07:58:48Z</time>
      </trkpt>
      <trkpt lat="45.69098" lon="-1.18616">
        <ele>7.5</ele>
        <time>2023-10-28T07:58:52Z</time>
      </trkpt>
      <trkpt lat="45.6911" lon="-1.18608">
        <ele>7.9</ele>
        <time>2023-10-28T07:58:55Z</time>
      </trkpt>
      <trkpt lat="45.69118" lon="-1.18602">
        <ele>8.2</ele>
        <time>2023-10-28T07:58:57Z</time>
      </trkpt>
      <trkpt lat="45.69125" lon="-1.18593">
        <ele>8.4</ele>
        <time>2023-10-28T07:58:59Z</time>
      </trkpt>
      <trkpt lat="45.6913" lon="-1.18578">
        <ele>8.8</ele>
        <time>2023-10-28T07:59:02Z</time>
      </trkpt>
      <trkpt lat="45.6913" lon="-1.18568">
        <ele>9.4</ele>
        <time>2023-10-28T07:59:04Z</time>
      </trkpt>
      <trkpt lat="45.69127" lon="-1.18538">
        <ele>9.7</ele>
        <time>2023-10-28T07:59:09Z</time>
      </trkpt>
      <trkpt lat="45.69126" lon="-1.18533">
        <ele>9.7</ele>
        <time>2023-10-28T07:59:10Z</time>
      </trkpt>
      <trkpt lat="45.69119" lon="-1.18504">
        <ele>10.1</ele>
        <time>2023-10-28T07:59:15Z</time>
      </trkpt>
      <trkpt lat="45.69111" lon="-1.18479">
        <ele>10.2</ele>
        <time>2023-10-28T07:59:19Z</time>
      </trkpt>
      <trkpt lat="45.69101" lon="-1.18454">
        <ele>10.6</ele>
        <time>2023-10-28T07:59:23Z</time>
      </trkpt>
      <trkpt lat="45.69091" lon="-1.1843">
        <ele>10.8</ele>
        <time>2023-10-28T07:59:27Z</time>
      </trkpt>
      <trkpt lat="45.69081" lon="-1.18408">
        <ele>10.9</ele>
        <time>2023-10-28T07:59:31Z</time>
      </trkpt>
      <trkpt lat="45.69072" lon="-1.18387">
        <ele>11</ele>
        <time>2023-10-28T07:59:35Z</time>
      </trkpt>
      <trkpt lat="45.6907" lon="-1.18373">
        <ele>11</ele>
        <time>2023-10-28T07:59:38Z</time>
      </trkpt>
      <trkpt lat="45.69073" lon="-1.18364">
        <ele>11</ele>
        <time>2023-10-28T07:59:40Z</time>
      </trkpt>
      <trkpt lat="45.69083" lon="-1.18355">
        <ele>11</ele>
        <time>2023-10-28T07:59:43Z</time>
      </trkpt>
      <trkpt lat="45.69101" lon="-1.18345">
        <ele>11</ele>
        <time>2023-10-28T07:59:47Z</time>
      </trkpt>
      <trkpt lat="45.69105" lon="-1.18341">
        <ele>11</ele>
        <time>2023-10-28T07:59:48Z</time>
      </trkpt>
      <trkpt lat="45.69109" lon="-1.1833">
        <ele>11</ele>
        <time>2023-10-28T07:59:50Z</time>
      </trkpt>
      <trkpt lat="45.69112" lon="-1.18304">
        <ele>10.1</ele>
        <time>2023-10-28T07:59:54Z</time>
      </trkpt>
      <trkpt lat="45.69114" lon="-1.18298">
        <ele>9.9</ele>
        <time>2023-10-28T07:59:55Z</time>
      </trkpt>
      <trkpt lat="45.69121" lon="-1.18278">
        <ele>8.9</ele>
        <time>2023-10-28T07:59:59Z</time>
      </trkpt>
      <trkpt lat="45.69122" lon="-1.18268">
        <ele>8.5</ele>
        <time>2023-10-28T08:00:01Z</time>
      </trkpt>
      <trkpt lat="45.69118" lon="-1.18261">
        <ele>8.1</ele>
        <time>2023-10-28T08:00:03Z</time>
      </trkpt>
      <trkpt lat="45.69109" lon="-1.18238">
        <ele>7.8</ele>
        <time>2023-10-28T08:00:07Z</time>
      </trkpt>
      <trkpt lat="45.69098" lon="-1.18216">
        <ele>7.5</ele>
        <time>2023-10-28T08:00:10Z</time>
      </trkpt>
      <trkpt lat="45.69086" lon="-1.18191">
        <ele>7.3</ele>
        <time>2023-10-28T08:00:14Z</time>
      </trkpt>
      <trkpt lat="45.69076" lon="-1.18167">
        <ele>7.1</ele>
        <time>2023-10-28T08:00:18Z</time>
      </trkpt>
      <trkpt lat="45.69066" lon="-1.18143">
        <ele>7.1</ele>
        <time>2023-10-28T08:00:22Z</time>
      </trkpt>
      <trkpt lat="45.69064" lon="-1.18139">
        <ele>7.1</ele>
        <time>2023-10-28T08:00:23Z</time>
      </trkpt>
      <trkpt lat="45.69058" lon="-1.18133">
        <ele>7.1</ele>
        <time>2023-10-28T08:00:25Z</time>
      </trkpt>
      <trkpt lat="45.69051" lon="-1.18134">
        <ele>7.5</ele>
        <time>2023-10-28T08:00:27Z</time>
      </trkpt>
      <trkpt lat="45.69042" lon="-1.1814">
        <ele>7.8</ele>
        <time>2023-10-28T08:00:29Z</time>
      </trkpt>
      <trkpt lat="45.69022" lon="-1.18153">
        <ele>8.8</ele>
        <time>2023-10-28T08:00:34Z</time>
      </trkpt>
      <trkpt lat="45.69015" lon="-1.18159">
        <ele>9</ele>
        <time>2023-10-28T08:00:36Z</time>
      </trkpt>
      <trkpt lat="45.69009" lon="-1.18168">
        <ele>9.1</ele>
        <time>2023-10-28T08:00:38Z</time>
      </trkpt>
      <trkpt lat="45.69005" lon="-1.18179">
        <ele>9</ele>
        <time>2023-10-28T08:00:40Z</time>
      </trkpt>
      <trkpt lat="45.69005" lon="-1.18191">
        <ele>8.9</ele>
        <time>2023-10-28T08:00:42Z</time>
      </trkpt>
      <trkpt lat="45.69012" lon="-1.18214">
        <ele>8.7</ele>
        <time>2023-10-28T08:00:46Z</time>
      </trkpt>
      <trkpt lat="45.69021" lon="-1.18236">
        <ele>8.9</ele>
        <time>2023-10-28T08:00:50Z</time>
      </trkpt>
      <trkpt lat="45.69021" lon="-1.18239">
        <ele>8.8</ele>
        <time>2023-10-28T08:00:54Z</time>
      </trkpt>
      <trkpt lat="45.69012" lon="-1.18213">
        <ele>8.7</ele>
        <time>2023-10-28T08:00:59Z</time>
      </trkpt>
      <trkpt lat="45.69001" lon="-1.1819">
        <ele>8.9</ele>
        <time>2023-10-28T08:01:03Z</time>
      </trkpt>
      <trkpt lat="45.68997" lon="-1.18187">
        <ele>9</ele>
        <time>2023-10-28T08:01:04Z</time>
      </trkpt>
      <trkpt lat="45.68989" lon="-1.18184">
        <ele>9</ele>
        <time>2023-10-28T08:01:06Z</time>
      </trkpt>
      <trkpt lat="45.68982" lon="-1.18185">
        <ele>8.9</ele>
        <time>2023-10-28T08:01:08Z</time>
      </trkpt>
      <trkpt lat="45.68974" lon="-1.18183">
        <ele>8.9</ele>
        <time>2023-10-28T08:01:10Z</time>
      </trkpt>
      <trkpt lat="45.68967" lon="-1.18174">
        <ele>8.9</ele>
        <time>2023-10-28T08:01:13Z</time>
      </trkpt>
      <trkpt lat="45.68966" lon="-1.18164">
        <ele>9</ele>
        <time>2023-10-28T08:01:15Z</time>
      </trkpt>
      <trkpt lat="45.68967" lon="-1.18152">
        <ele>9.1</ele>
        <time>2023-10-28T08:01:17Z</time>
      </trkpt>
      <trkpt lat="45.68978" lon="-1.18133">
        <ele>9.1</ele>
        <time>2023-10-28T08:01:20Z</time>
      </trkpt>
      <trkpt lat="45.68991" lon="-1.18109">
        <ele>8.8</ele>
        <time>2023-10-28T08:01:24Z</time>
      </trkpt>
      <trkpt lat="45.69002" lon="-1.18091">
        <ele>8.5</ele>
        <time>2023-10-28T08:01:27Z</time>
      </trkpt>
      <trkpt lat="45.69003" lon="-1.18081">
        <ele>8.4</ele>
        <time>2023-10-28T08:01:29Z</time>
      </trkpt>
      <trkpt lat="45.69" lon="-1.18075">
        <ele>8.4</ele>
        <time>2023-10-28T08:01:31Z</time>
      </trkpt>
      <trkpt lat="45.68994" lon="-1.18071">
        <ele>8.4</ele>
        <time>2023-10-28T08:01:33Z</time>
      </trkpt>
      <trkpt lat="45.68988" lon="-1.1806">
        <ele>8.5</ele>
        <time>2023-10-28T08:01:35Z</time>
      </trkpt>
      <trkpt lat="45.68986" lon="-1.1805">
        <ele>8.5</ele>
        <time>2023-10-28T08:01:37Z</time>
      </trkpt>
      <trkpt lat="45.68986" lon="-1.18048">
        <ele>8.5</ele>
        <time>2023-10-28T08:01:40Z</time>
      </trkpt>
      <trkpt lat="45.68992" lon="-1.18057">
        <ele>8.4</ele>
        <time>2023-10-28T08:01:45Z</time>
      </trkpt>
      <trkpt lat="45.6899" lon="-1.18025">
        <ele>8.6</ele>
        <time>2023-10-28T08:01:50Z</time>
      </trkpt>
      <trkpt lat="45.68989" lon="-1.17997">
        <ele>8.7</ele>
        <time>2023-10-28T08:01:55Z</time>
      </trkpt>
      <trkpt lat="45.68993" lon="-1.17971">
        <ele>8.6</ele>
        <time>2023-10-28T08:02:00Z</time>
      </trkpt>
      <trkpt lat="45.68991" lon="-1.17968">
        <ele>8.6</ele>
        <time>2023-10-28T08:02:01Z</time>
      </trkpt>
      <trkpt lat="45.68985" lon="-1.17944">
        <ele>8.8</ele>
        <time>2023-10-28T08:02:08Z</time>
      </trkpt>
      <trkpt lat="45.68985" lon="-1.17919">
        <ele>8.8</ele>
        <time>2023-10-28T08:02:14Z</time>
      </trkpt>
      <trkpt lat="45.68974" lon="-1.17896">
        <ele>9</ele>
        <time>2023-10-28T08:02:20Z</time>
      </trkpt>
      <trkpt lat="45.68957" lon="-1.17891">
        <ele>9.5</ele>
        <time>2023-10-28T08:02:25Z</time>
      </trkpt>
      <trkpt lat="45.68937" lon="-1.17889">
        <ele>10</ele>
        <time>2023-10-28T08:02:30Z</time>
      </trkpt>
      <trkpt lat="45.68921" lon="-1.179">
        <ele>10.6</ele>
        <time>2023-10-28T08:02:34Z</time>
      </trkpt>
      <trkpt lat="45.68905" lon="-1.17916">
        <ele>11.2</ele>
        <time>2023-10-28T08:02:41Z</time>
      </trkpt>
      <trkpt lat="45.6889" lon="-1.17921">
        <ele>11.5</ele>
        <time>2023-10-28T08:02:45Z</time>
      </trkpt>
      <trkpt lat="45.68872" lon="-1.17923">
        <ele>11.6</ele>
        <time>2023-10-28T08:02:50Z</time>
      </trkpt>
      <trkpt lat="45.68854" lon="-1.17917">
        <ele>11.5</ele>
        <time>2023-10-28T08:02:56Z</time>
      </trkpt>
      <trkpt lat="45.68834" lon="-1.17923">
        <ele>11.4</ele>
        <time>2023-10-28T08:03:01Z</time>
      </trkpt>
      <trkpt lat="45.68825" lon="-1.17947">
        <ele>11.4</ele>
        <time>2023-10-28T08:03:06Z</time>
      </trkpt>
      <trkpt lat="45.68812" lon="-1.17974">
        <ele>11.3</ele>
        <time>2023-10-28T08:03:12Z</time>
      </trkpt>
      <trkpt lat="45.68802" lon="-1.18">
        <ele>10.8</ele>
        <time>2023-10-28T08:03:17Z</time>
      </trkpt>
      <trkpt lat="45.68793" lon="-1.18026">
        <ele>10.3</ele>
        <time>2023-10-28T08:03:25Z</time>
      </trkpt>
      <trkpt lat="45.68786" lon="-1.18051">
        <ele>9.8</ele>
        <time>2023-10-28T08:03:29Z</time>
      </trkpt>
      <trkpt lat="45.68774" lon="-1.18077">
        <ele>9.2</ele>
        <time>2023-10-28T08:03:34Z</time>
      </trkpt>
      <trkpt lat="45.68765" lon="-1.18101">
        <ele>8.5</ele>
        <time>2023-10-28T08:03:39Z</time>
      </trkpt>
      <trkpt lat="45.68764" lon="-1.18129">
        <ele>7.7</ele>
        <time>2023-10-28T08:03:44Z</time>
      </trkpt>
      <trkpt lat="45.68761" lon="-1.18155">
        <ele>7.1</ele>
        <time>2023-10-28T08:03:48Z</time>
      </trkpt>
      <trkpt lat="45.6876" lon="-1.18182">
        <ele>6.5</ele>
        <time>2023-10-28T08:03:52Z</time>
      </trkpt>
      <trkpt lat="45.68762" lon="-1.18187">
        <ele>6.5</ele>
        <time>2023-10-28T08:03:53Z</time>
      </trkpt>
      <trkpt lat="45.68768" lon="-1.1819">
        <ele>6.6</ele>
        <time>2023-10-28T08:03:55Z</time>
      </trkpt>
      <trkpt lat="45.68776" lon="-1.1819">
        <ele>6.7</ele>
        <time>2023-10-28T08:03:58Z</time>
      </trkpt>
      <trkpt lat="45.68777" lon="-1.18192">
        <ele>6.7</ele>
        <time>2023-10-28T08:04:00Z</time>
      </trkpt>
      <trkpt lat="45.68757" lon="-1.18193">
        <ele>6.4</ele>
        <time>2023-10-28T08:04:06Z</time>
      </trkpt>
      <trkpt lat="45.68737" lon="-1.18191">
        <ele>6.1</ele>
        <time>2023-10-28T08:04:11Z</time>
      </trkpt>
      <trkpt lat="45.68726" lon="-1.1819">
        <ele>6</ele>
        <time>2023-10-28T08:04:13Z</time>
      </trkpt>
      <trkpt lat="45.6872" lon="-1.18196">
        <ele>5.9</ele>
        <time>2023-10-28T08:04:15Z</time>
      </trkpt>
      <trkpt lat="45.68718" lon="-1.18226">
        <ele>5.6</ele>
        <time>2023-10-28T08:04:20Z</time>
      </trkpt>
      <trkpt lat="45.6872" lon="-1.1823">
        <ele>5.6</ele>
        <time>2023-10-28T08:04:21Z</time>
      </trkpt>
      <trkpt lat="45.68724" lon="-1.18228">
        <ele>5.6</ele>
        <time>2023-10-28T08:04:26Z</time>
      </trkpt>
      <trkpt lat="45.68711" lon="-1.18216">
        <ele>5.7</ele>
        <time>2023-10-28T08:04:31Z</time>
      </trkpt>
      <trkpt lat="45.68701" lon="-1.18218">
        <ele>5.7</ele>
        <time>2023-10-28T08:04:33Z</time>
      </trkpt>
      <trkpt lat="45.68689" lon="-1.1822">
        <ele>5.6</ele>
        <time>2023-10-28T08:04:36Z</time>
      </trkpt>
      <trkpt lat="45.68672" lon="-1.18207">
        <ele>5.8</ele>
        <time>2023-10-28T08:04:41Z</time>
      </trkpt>
      <trkpt lat="45.68654" lon="-1.18196">
        <ele>6</ele>
        <time>2023-10-28T08:04:45Z</time>
      </trkpt>
      <trkpt lat="45.68648" lon="-1.18169">
        <ele>6.3</ele>
        <time>2023-10-28T08:04:50Z</time>
      </trkpt>
      <trkpt lat="45.68647" lon="-1.18154">
        <ele>6.5</ele>
        <time>2023-10-28T08:04:54Z</time>
      </trkpt>
      <trkpt lat="45.68628" lon="-1.18163">
        <ele>6.4</ele>
        <time>2023-10-28T08:04:59Z</time>
      </trkpt>
      <trkpt lat="45.68609" lon="-1.1817">
        <ele>6.5</ele>
        <time>2023-10-28T08:05:03Z</time>
      </trkpt>
      <trkpt lat="45.68597" lon="-1.18192">
        <ele>6.6</ele>
        <time>2023-10-28T08:05:08Z</time>
      </trkpt>
      <trkpt lat="45.68582" lon="-1.18206">
        <ele>6.9</ele>
        <time>2023-10-28T08:05:13Z</time>
      </trkpt>
      <trkpt lat="45.68583" lon="-1.18219">
        <ele>6.9</ele>
        <time>2023-10-28T08:05:15Z</time>
      </trkpt>
      <trkpt lat="45.68583" lon="-1.18233">
        <ele>7.1</ele>
        <time>2023-10-28T08:05:17Z</time>
      </trkpt>
      <trkpt lat="45.68578" lon="-1.18255">
        <ele>7.2</ele>
        <time>2023-10-28T08:05:21Z</time>
      </trkpt>
      <trkpt lat="45.68575" lon="-1.18262">
        <ele>7.3</ele>
        <time>2023-10-28T08:05:23Z</time>
      </trkpt>
      <trkpt lat="45.68566" lon="-1.18262">
        <ele>7.4</ele>
        <time>2023-10-28T08:05:26Z</time>
      </trkpt>
      <trkpt lat="45.68561" lon="-1.18255">
        <ele>7.3</ele>
        <time>2023-10-28T08:05:28Z</time>
      </trkpt>
      <trkpt lat="45.68554" lon="-1.18229">
        <ele>7.1</ele>
        <time>2023-10-28T08:05:32Z</time>
      </trkpt>
      <trkpt lat="45.68547" lon="-1.18211">
        <ele>7.1</ele>
        <time>2023-10-28T08:05:35Z</time>
      </trkpt>
      <trkpt lat="45.6854" lon="-1.18202">
        <ele>7.1</ele>
        <time>2023-10-28T08:05:37Z</time>
      </trkpt>
      <trkpt lat="45.68532" lon="-1.18198">
        <ele>7.2</ele>
        <time>2023-10-28T08:05:39Z</time>
      </trkpt>
      <trkpt lat="45.68521" lon="-1.18198">
        <ele>7.2</ele>
        <time>2023-10-28T08:05:42Z</time>
      </trkpt>
      <trkpt lat="45.68504" lon="-1.18208">
        <ele>6.9</ele>
        <time>2023-10-28T08:05:49Z</time>
      </trkpt>
      <trkpt lat="45.68492" lon="-1.18232">
        <ele>6.4</ele>
        <time>2023-10-28T08:05:56Z</time>
      </trkpt>
      <trkpt lat="45.6849" lon="-1.18252">
        <ele>6.7</ele>
        <time>2023-10-28T08:06:01Z</time>
      </trkpt>
      <trkpt lat="45.68485" lon="-1.18253">
        <ele>6</ele>
        <time>2023-10-28T08:06:03Z</time>
      </trkpt>
      <trkpt lat="45.68466" lon="-1.18235">
        <ele>2</ele>
        <time>2023-10-28T08:06:08Z</time>
      </trkpt>
      <trkpt lat="45.68448" lon="-1.18218">
        <ele>1.9</ele>
        <time>2023-10-28T08:06:12Z</time>
      </trkpt>
      <trkpt lat="45.68443" lon="-1.18216">
        <ele>1.3</ele>
        <time>2023-10-28T08:06:13Z</time>
      </trkpt>
      <trkpt lat="45.68432" lon="-1.18211">
        <ele>-0.2</ele>
        <time>2023-10-28T08:06:18Z</time>
      </trkpt>
      <trkpt lat="45.68431" lon="-1.18209">
        <ele>0.2</ele>
        <time>2023-10-28T08:06:20Z</time>
      </trkpt>
      <trkpt lat="45.68414" lon="-1.18187">
        <ele>1.2</ele>
        <time>2023-10-28T08:06:28Z</time>
      </trkpt>
      <trkpt lat="45.68401" lon="-1.18165">
        <ele>3.1</ele>
        <time>2023-10-28T08:06:32Z</time>
      </trkpt>
      <trkpt lat="45.68393" lon="-1.18149">
        <ele>6.2</ele>
        <time>2023-10-28T08:06:35Z</time>
      </trkpt>
      <trkpt lat="45.68382" lon="-1.18125">
        <ele>6.3</ele>
        <time>2023-10-28T08:06:39Z</time>
      </trkpt>
      <trkpt lat="45.68366" lon="-1.18107">
        <ele>6.2</ele>
        <time>2023-10-28T08:06:43Z</time>
      </trkpt>
      <trkpt lat="45.68347" lon="-1.18088">
        <ele>6.3</ele>
        <time>2023-10-28T08:06:47Z</time>
      </trkpt>
      <trkpt lat="45.68336" lon="-1.18075">
        <ele>6.2</ele>
        <time>2023-10-28T08:06:50Z</time>
      </trkpt>
      <trkpt lat="45.6833" lon="-1.1807">
        <ele>6.1</ele>
        <time>2023-10-28T08:06:52Z</time>
      </trkpt>
      <trkpt lat="45.68311" lon="-1.18068">
        <ele>6.2</ele>
        <time>2023-10-28T08:06:57Z</time>
      </trkpt>
      <trkpt lat="45.68301" lon="-1.18072">
        <ele>6.1</ele>
        <time>2023-10-28T08:06:59Z</time>
      </trkpt>
      <trkpt lat="45.68284" lon="-1.18079">
        <ele>3.7</ele>
        <time>2023-10-28T08:07:03Z</time>
      </trkpt>
      <trkpt lat="45.68277" lon="-1.18075">
        <ele>1.5</ele>
        <time>2023-10-28T08:07:05Z</time>
      </trkpt>
      <trkpt lat="45.68269" lon="-1.1805">
        <ele>4.7</ele>
        <time>2023-10-28T08:07:09Z</time>
      </trkpt>
      <trkpt lat="45.68258" lon="-1.18024">
        <ele>6</ele>
        <time>2023-10-28T08:07:13Z</time>
      </trkpt>
      <trkpt lat="45.6825" lon="-1.18005">
        <ele>6.8</ele>
        <time>2023-10-28T08:07:17Z</time>
      </trkpt>
      <trkpt lat="45.68238" lon="-1.17986">
        <ele>6.3</ele>
        <time>2023-10-28T08:07:21Z</time>
      </trkpt>
      <trkpt lat="45.68229" lon="-1.17957">
        <ele>6.7</ele>
        <time>2023-10-28T08:07:25Z</time>
      </trkpt>
      <trkpt lat="45.68221" lon="-1.17932">
        <ele>6.9</ele>
        <time>2023-10-28T08:07:28Z</time>
      </trkpt>
      <trkpt lat="45.68211" lon="-1.17908">
        <ele>7.3</ele>
        <time>2023-10-28T08:07:31Z</time>
      </trkpt>
      <trkpt lat="45.68201" lon="-1.17885">
        <ele>7.3</ele>
        <time>2023-10-28T08:07:35Z</time>
      </trkpt>
      <trkpt lat="45.682" lon="-1.17879">
        <ele>7.3</ele>
        <time>2023-10-28T08:07:39Z</time>
      </trkpt>
      <trkpt lat="45.682" lon="-1.17877">
        <ele>7.3</ele>
        <time>2023-10-28T08:07:41Z</time>
      </trkpt>
    </trkseg>
  </trk>
</gpx>